Time;durP1;ratioP1;P1;durP2;ratioP2;P2;SDS_P1;SDS_P2;PMS_P1;PMS_P2;Temp;Humidity;BMP_temperature;BMP_pressure;BME280_temperature;BME280_humidity;BME280_pressure;Samples;Min_cycle;Max_cycle;Signal;HPM_P1;HPM_P2
2021/08/22 00:02:25;;;;;;;6.15;5.10;;;;;;;15.30;72.02;98020.80;1649180;87;21050;-86
2021/08/22 00:04:51;;;;;;;7.42;5.28;;;;;;;15.26;71.87;98020.09;1703274;83;21056;-85
2021/08/22 00:07:17;;;;;;;10.10;5.65;;;;;;;15.18;72.45;98021.80;1680228;84;21062;-88
2021/08/22 00:09:44;;;;;;;7.85;5.05;;;;;;;15.18;71.34;98023.14;1685749;84;21076;-82
2021/08/22 00:12:10;;;;;;;6.25;5.37;;;;;;;15.21;72.18;98019.91;1676720;86;21110;-87
2021/08/22 00:14:36;;;;;;;8.03;5.33;;;;;;;15.14;72.21;98021.55;1676665;86;21014;-86
2021/08/22 00:17:03;;;;;;;6.58;5.35;;;;;;;15.13;72.50;98019.82;1676616;86;21443;-86
2021/08/22 00:19:30;;;;;;;9.00;5.25;;;;;;;15.11;72.45;98019.02;1676158;86;21053;-86
2021/08/22 00:21:57;;;;;;;6.33;5.03;;;;;;;15.07;72.14;98017.42;1676828;84;21018;-86
2021/08/22 00:24:23;;;;;;;8.18;5.15;;;;;;;15.07;73.47;98013.91;1708019;82;21469;-86
2021/08/22 00:26:50;;;;;;;8.45;5.53;;;;;;;15.06;72.21;98017.03;1733374;83;20967;-86
2021/08/22 00:29:17;;;;;;;6.78;5.25;;;;;;;15.06;72.28;98011.70;1708970;84;21392;-86
2021/08/22 00:31:44;;;;;;;6.60;4.87;;;;;;;15.02;73.16;98012.32;1724702;82;21049;-85
2021/08/22 00:34:11;;;;;;;8.65;5.35;;;;;;;15.03;72.63;98014.53;1735189;81;21011;-85
2021/08/22 00:36:37;;;;;;;9.43;5.45;;;;;;;15.06;72.36;98014.36;1731918;82;20979;-85
2021/08/22 00:39:05;;;;;;;7.10;5.00;;;;;;;15.09;72.57;98016.02;1717183;82;21476;-84
2021/08/22 00:41:32;;;;;;;6.20;4.95;;;;;;;15.10;72.91;98017.29;1732088;82;21015;-86
2021/08/22 00:43:58;;;;;;;5.92;4.60;;;;;;;15.13;73.01;98014.94;1724209;81;21019;-85
2021/08/22 00:46:25;;;;;;;6.50;4.80;;;;;;;15.13;73.89;98013.61;1720214;82;21135;-86
2021/08/22 00:48:52;;;;;;;7.97;5.00;;;;;;;15.14;73.50;98008.66;1720170;82;21000;-83
2021/08/22 00:51:19;;;;;;;6.95;4.50;;;;;;;15.17;73.30;98001.84;1715588;82;20975;-87
2021/08/22 00:53:47;;;;;;;5.75;4.33;;;;;;;15.23;73.24;98012.71;1729923;82;21579;-88
2021/08/22 00:56:15;;;;;;;6.08;4.40;;;;;;;15.31;72.85;98009.17;1729225;82;21025;-88
2021/08/22 00:58:45;;;;;;;8.50;4.95;;;;;;;15.36;72.62;98004.47;1743484;81;21007;-83
2021/08/22 01:01:20;;;;;;;6.53;4.42;;;;;;;15.39;72.69;98008.80;1728128;82;20984;-87
2021/08/22 01:03:55;;;;;;;6.10;4.83;;;;;;;15.34;72.78;98004.16;1716282;82;21020;-88
2021/08/22 01:06:51;;;;;;;7.20;4.37;;;;;;;15.34;72.41;98006.37;1698382;84;21042;-87
2021/08/22 01:09:47;;;;;;;9.33;4.97;;;;;;;15.32;72.41;97997.55;1715388;84;21453;-87
2021/08/22 01:12:25;;;;;;;5.87;4.17;;;;;;;15.29;72.19;98007.91;1713868;84;21060;-87
2021/08/22 01:14:57;;;;;;;6.17;4.20;;;;;;;15.31;72.21;98002.05;1738453;82;21159;-87
2021/08/22 01:17:27;;;;;;;7.05;4.80;;;;;;;15.23;72.69;98003.36;1716263;82;20984;-87
2021/08/22 01:20:02;;;;;;;8.33;4.85;;;;;;;15.14;72.80;97997.98;1716821;83;21509;-87
2021/08/22 01:22:31;;;;;;;7.78;5.10;;;;;;;15.08;72.87;98002.29;1738100;82;21465;-87
2021/08/22 01:25:00;;;;;;;6.65;5.62;;;;;;;15.01;73.02;98001.71;1713063;83;21090;-87
2021/08/22 01:27:28;;;;;;;7.58;4.90;;;;;;;14.95;73.28;98002.02;1697239;84;21035;-87
2021/08/22 01:30:06;;;;;;;6.17;5.00;;;;;;;14.93;72.97;97995.41;1706926;82;21407;-87
2021/08/22 01:32:46;;;;;;;8.45;5.33;;;;;;;14.95;72.75;97998.01;1719720;83;20992;-87
2021/08/22 01:35:17;;;;;;;7.72;5.05;;;;;;;14.97;72.97;97996.13;1722306;82;21025;-87
2021/08/22 01:37:47;;;;;;;5.78;4.50;;;;;;;15.00;72.65;98001.32;1753896;81;20985;-86
2021/08/22 01:40:20;;;;;;;6.28;4.85;;;;;;;14.97;72.68;97994.78;1748725;81;21004;-87
2021/08/22 01:42:49;;;;;;;7.12;4.72;;;;;;;14.99;72.81;97989.77;1721107;83;21012;-87
2021/08/22 01:45:19;;;;;;;5.40;4.70;;;;;;;15.00;72.65;97995.98;1723117;82;20977;-87
2021/08/22 01:47:48;;;;;;;8.08;4.80;;;;;;;15.01;72.51;97999.05;1720615;82;21084;-87
2021/08/22 01:50:20;;;;;;;6.45;4.97;;;;;;;15.00;73.81;97994.65;1719687;83;21052;-87
2021/08/22 01:52:53;;;;;;;7.40;4.90;;;;;;;14.97;73.97;97995.66;1719314;83;20997;-87
2021/08/22 01:55:20;;;;;;;7.20;4.60;;;;;;;14.96;73.00;97999.28;1720459;83;20960;-87
2021/08/22 01:57:46;;;;;;;7.05;5.00;;;;;;;14.95;73.32;98000.19;1720379;83;21080;-87
2021/08/22 02:00:15;;;;;;;8.50;4.95;;;;;;;14.93;73.25;97995.41;1719073;83;21016;-87
2021/08/22 02:02:59;;;;;;;6.10;4.78;;;;;;;14.92;73.27;97999.02;1719345;83;20992;-87
2021/08/22 02:05:28;;;;;;;6.15;4.67;;;;;;;14.85;74.74;97995.77;1700090;83;21106;-87
2021/08/22 02:07:54;;;;;;;6.97;4.80;;;;;;;14.84;73.24;97993.17;1706834;83;21012;-87
2021/08/22 02:10:29;;;;;;;6.37;4.95;;;;;;;14.81;73.43;97987.52;1719361;82;21325;-87
2021/08/22 02:13:01;;;;;;;6.12;5.00;;;;;;;14.74;73.77;97987.38;1720477;83;21024;-87
2021/08/22 02:15:41;;;;;;;6.45;4.47;;;;;;;14.70;73.85;97993.30;1724455;82;21443;-87
2021/08/22 02:18:16;;;;;;;6.95;4.80;;;;;;;14.64;74.48;97999.81;1718992;82;20992;-88
2021/08/22 02:20:40;;;;;;;6.22;4.70;;;;;;;14.61;74.60;97993.27;1719305;83;21542;-88
2021/08/22 02:23:09;;;;;;;6.87;4.58;;;;;;;14.55;75.85;98000.69;1719194;83;21451;-88
2021/08/22 02:25:36;;;;;;;6.75;4.70;;;;;;;14.52;75.03;97994.57;1748405;82;21052;-88
2021/08/22 02:28:04;;;;;;;5.20;4.05;;;;;;;14.48;75.92;97993.43;1729157;82;21490;-89
2021/08/22 02:30:36;;;;;;;6.97;4.60;;;;;;;14.49;75.76;97997.37;1726202;83;21024;-88
2021/08/22 02:33:05;;;;;;;5.37;4.20;;;;;;;14.47;75.70;97992.59;1726137;83;21012;-87
2021/08/22 02:35:32;;;;;;;5.30;3.90;;;;;;;14.42;75.95;97998.59;1750317;82;21000;-88
2021/08/22 02:37:58;;;;;;;7.00;4.17;;;;;;;14.42;76.24;97999.05;1729982;81;21402;-88
2021/08/22 02:40:25;;;;;;;5.78;4.40;;;;;;;14.44;75.61;97983.84;1726117;83;21049;-88
2021/08/22 02:42:53;;;;;;;5.33;4.05;;;;;;;14.48;75.43;97988.09;1724577;82;20984;-88
2021/08/22 02:45:20;;;;;;;4.92;4.00;;;;;;;14.49;75.39;97986.70;1738976;82;21509;-86
2021/08/22 02:47:46;;;;;;;6.10;4.40;;;;;;;14.51;75.28;97989.30;1724905;82;21056;-85
2021/08/22 02:50:13;;;;;;;5.75;4.10;;;;;;;14.44;75.49;97986.50;1726238;83;20976;-85
2021/08/22 02:52:39;;;;;;;6.15;4.75;;;;;;;14.42;75.54;97993.27;1725110;82;20988;-88
2021/08/22 02:55:07;;;;;;;6.25;4.75;;;;;;;14.42;75.55;97981.72;1743560;82;21459;-88
2021/08/22 02:57:33;;;;;;;5.70;4.55;;;;;;;14.42;75.38;97987.05;1736585;82;21008;-88
2021/08/22 03:00:00;;;;;;;6.75;4.80;;;;;;;14.37;75.37;97995.27;1726404;83;21040;-88
2021/08/22 03:02:26;;;;;;;6.95;4.78;;;;;;;14.32;75.08;97987.47;1726219;83;21088;-88
2021/08/22 03:04:53;;;;;;;7.75;4.62;;;;;;;14.29;75.92;97989.41;1740904;82;20969;-88
2021/08/22 03:07:19;;;;;;;7.83;5.30;;;;;;;14.27;75.81;97989.48;1739970;82;21501;-88
2021/08/22 03:09:46;;;;;;;7.62;5.10;;;;;;;14.23;74.87;97987.42;1698027;82;21067;-88
2021/08/22 03:12:12;;;;;;;8.38;5.08;;;;;;;14.23;74.42;97983.88;1725158;83;21075;-88
2021/08/22 03:14:39;;;;;;;8.93;4.90;;;;;;;14.17;76.00;97987.70;1736851;82;20944;-88
2021/08/22 03:17:05;;;;;;;7.08;4.97;;;;;;;14.11;75.54;97983.50;1743201;82;21097;-88
2021/08/22 03:19:32;;;;;;;7.80;5.05;;;;;;;14.05;76.22;97985.56;1726251;82;21074;-88
2021/08/22 03:21:59;;;;;;;6.58;5.03;;;;;;;14.03;75.35;97986.11;1726158;82;21015;-88
2021/08/22 03:24:25;;;;;;;6.97;5.28;;;;;;;13.98;76.14;97988.96;1733917;82;20972;-88
2021/08/22 03:26:52;;;;;;;10.23;5.35;;;;;;;13.92;75.85;97982.58;1733467;82;21031;-88
2021/08/22 03:29:18;;;;;;;6.87;5.25;;;;;;;13.88;75.65;97988.97;1738171;82;21498;-88
2021/08/22 03:31:45;;;;;;;5.87;4.50;;;;;;;13.87;76.27;97988.09;1707753;84;21017;-88
2021/08/22 03:34:11;;;;;;;6.30;5.28;;;;;;;13.85;76.50;97996.17;1740051;81;21046;-89
2021/08/22 03:36:38;;;;;;;8.90;5.17;;;;;;;13.84;75.86;97989.09;1741772;81;21049;-88
2021/08/22 03:39:06;;;;;;;10.18;5.20;;;;;;;13.83;76.40;97990.51;1738988;82;21397;-88
2021/08/22 03:41:34;;;;;;;5.97;4.95;;;;;;;13.83;75.79;97994.02;1709312;83;21043;-88
2021/08/22 03:44:01;;;;;;;10.10;4.90;;;;;;;13.83;76.86;97993.17;1762293;81;20948;-86
2021/08/22 03:46:27;;;;;;;7.12;4.83;;;;;;;13.80;77.15;97993.30;1744672;81;21000;-87
2021/08/22 03:48:54;;;;;;;7.83;5.45;;;;;;;13.75;77.33;97992.17;1739886;82;21067;-86
2021/08/22 03:51:23;;;;;;;7.62;4.97;;;;;;;13.73;76.54;97993.56;1739801;82;21179;-87
2021/08/22 03:53:50;;;;;;;9.45;5.15;;;;;;;13.72;78.06;97990.51;1758732;81;21003;-86
2021/08/22 03:56:17;;;;;;;7.72;5.60;;;;;;;13.73;76.72;97995.34;1747344;81;20999;-87
2021/08/22 03:58:45;;;;;;;8.78;5.15;;;;;;;13.73;77.20;97998.02;1739284;82;21410;-87
2021/08/22 04:01:11;;;;;;;5.15;4.50;;;;;;;13.71;77.15;97996.73;1740646;81;21027;-87
2021/08/22 04:03:40;;;;;;;7.55;5.50;;;;;;;13.69;78.30;97995.95;1751316;81;21012;-87
2021/08/22 04:06:24;;;;;;;7.30;4.50;;;;;;;13.75;76.62;97998.83;1678836;84;21081;-87
2021/08/22 04:08:49;;;;;;;5.92;4.70;;;;;;;13.80;77.45;98001.28;1735133;82;21469;-87
2021/08/22 04:11:15;;;;;;;6.42;4.78;;;;;;;13.83;77.35;98005.16;1740863;81;20984;-87
2021/08/22 04:13:42;;;;;;;6.00;4.30;;;;;;;13.88;77.08;98002.28;1739229;81;21127;-87
2021/08/22 04:16:08;;;;;;;6.75;4.50;;;;;;;13.91;76.91;98003.02;1751186;81;20984;-87
2021/08/22 04:18:35;;;;;;;6.40;4.75;;;;;;;13.96;77.10;98006.83;1709553;84;21075;-87
2021/08/22 04:21:01;;;;;;;7.75;4.50;;;;;;;14.02;77.35;98007.00;1744289;81;21173;-87
2021/08/22 04:23:28;;;;;;;6.17;4.10;;;;;;;14.01;76.87;98003.95;1768584;81;21451;-87
2021/08/22 04:25:55;;;;;;;9.00;4.75;;;;;;;14.06;76.56;98005.48;1746020;81;21063;-87
2021/08/22 04:28:21;;;;;;;7.55;4.50;;;;;;;14.11;76.61;97998.16;1719380;82;21079;-87
2021/08/22 04:30:48;;;;;;;8.95;4.67;;;;;;;14.13;76.65;98004.76;1722411;82;20985;-87
2021/08/22 04:33:14;;;;;;;6.78;4.53;;;;;;;14.13;76.71;98012.75;1745937;81;21379;-87
2021/08/22 04:35:41;;;;;;;6.83;5.03;;;;;;;14.15;76.45;98010.03;1719386;83;21012;-87
2021/08/22 04:38:07;;;;;;;6.37;4.92;;;;;;;14.13;76.54;98018.93;1719480;83;21107;-86
2021/08/22 04:40:39;;;;;;;8.15;4.92;;;;;;;14.16;76.20;98013.93;1721033;82;21004;-86
2021/08/22 04:43:05;;;;;;;7.72;4.78;;;;;;;14.12;76.68;98018.54;1720629;83;21091;-86
2021/08/22 04:45:33;;;;;;;7.80;4.87;;;;;;;14.13;76.40;98018.93;1719926;82;21050;-86
2021/08/22 04:47:59;;;;;;;7.70;5.00;;;;;;;14.18;76.06;98016.08;1719351;83;21060;-86
2021/08/22 04:50:26;;;;;;;9.15;4.62;;;;;;;14.22;76.40;98018.14;1720964;82;20969;-86
2021/08/22 04:52:52;;;;;;;6.78;5.17;;;;;;;14.24;75.77;98020.25;1720373;82;21016;-86
2021/08/22 04:55:19;;;;;;;6.85;4.87;;;;;;;14.25;76.19;98025.52;1720188;83;21013;-86
2021/08/22 04:57:45;;;;;;;6.37;5.00;;;;;;;14.30;75.75;98020.46;1719882;83;21076;-86
2021/08/22 05:00:14;;;;;;;7.85;5.17;;;;;;;14.34;75.70;98023.39;1736018;82;21445;-86
2021/08/22 05:02:41;;;;;;;8.60;5.10;;;;;;;14.36;75.66;98025.05;1754003;82;21008;-86
2021/08/22 05:05:08;;;;;;;6.20;4.85;;;;;;;14.40;76.11;98024.45;1754780;82;20977;-86
2021/08/22 05:07:35;;;;;;;7.55;5.22;;;;;;;14.44;75.28;98023.83;1754882;82;20965;-87
2021/08/22 05:10:02;;;;;;;6.95;5.12;;;;;;;14.49;75.21;98017.37;1741408;82;21028;-87
2021/08/22 05:12:28;;;;;;;7.22;4.65;;;;;;;14.57;74.91;98022.84;1723629;83;21008;-87
2021/08/22 05:14:57;;;;;;;9.60;4.75;;;;;;;14.61;75.00;98021.73;1721810;83;20941;-87
2021/08/22 05:17:23;;;;;;;8.40;5.33;;;;;;;14.63;75.11;98026.09;1721063;83;21032;-87
2021/08/22 05:19:49;;;;;;;10.80;4.72;;;;;;;14.67;75.36;98024.59;1721710;82;20972;-88
2021/08/22 05:22:16;;;;;;;8.33;5.22;;;;;;;14.71;75.18;98021.73;1721734;83;21087;-88
2021/08/22 05:24:43;;;;;;;8.43;4.83;;;;;;;14.76;74.57;98033.09;1722528;83;21019;-89
2021/08/22 05:27:10;;;;;;;6.50;5.22;;;;;;;14.81;74.49;98030.66;1716740;82;20989;-88
2021/08/22 05:29:36;;;;;;;6.28;5.10;;;;;;;14.84;74.25;98033.19;1712914;83;20972;-88
2021/08/22 05:32:04;;;;;;;6.20;4.65;;;;;;;14.87;74.14;98030.39;1712752;84;21067;-88
2021/08/22 05:34:31;;;;;;;6.58;5.42;;;;;;;14.91;73.88;98027.49;1712724;80;21040;-88
2021/08/22 05:36:58;;;;;;;5.30;4.80;;;;;;;14.97;73.75;98029.02;1712270;81;20957;-88
2021/08/22 05:39:24;;;;;;;10.32;4.75;;;;;;;15.03;73.70;98030.06;1712495;82;21561;-88
2021/08/22 05:41:50;;;;;;;6.10;4.75;;;;;;;15.10;73.76;98027.09;1715420;81;20981;-87
2021/08/22 05:44:17;;;;;;;6.15;4.90;;;;;;;15.17;73.60;98029.88;1706114;80;21017;-88
2021/08/22 05:46:43;;;;;;;7.53;4.92;;;;;;;15.24;73.31;98027.78;1708114;81;20997;-87
2021/08/22 05:49:10;;;;;;;7.90;4.72;;;;;;;15.34;73.09;98032.19;1712454;81;21016;-87
2021/08/22 05:51:36;;;;;;;7.80;5.35;;;;;;;15.40;72.95;98027.91;1724353;83;21053;-88
2021/08/22 05:54:03;;;;;;;5.70;4.72;;;;;;;15.47;72.81;98032.00;1727293;82;21061;-88
2021/08/22 05:56:29;;;;;;;6.80;5.10;;;;;;;15.53;72.73;98028.17;1714628;82;20989;-88
2021/08/22 05:58:55;;;;;;;6.50;4.60;;;;;;;15.60;72.56;98034.08;1709789;83;21004;-88
2021/08/22 06:01:22;;;;;;;6.72;4.80;;;;;;;15.66;72.45;98029.27;1720597;83;21038;-88
2021/08/22 06:03:50;;;;;;;6.30;4.75;;;;;;;15.74;72.51;98028.03;1712503;83;21046;-87
2021/08/22 06:06:21;;;;;;;7.92;5.08;;;;;;;15.84;72.33;98030.62;1695919;84;21033;-85
2021/08/22 06:08:48;;;;;;;7.40;4.90;;;;;;;15.90;72.15;98026.30;1695564;84;21037;-87
2021/08/22 06:11:15;;;;;;;6.08;4.50;;;;;;;15.98;72.06;98018.41;1648109;86;21010;-87
2021/08/22 06:13:41;;;;;;;8.30;5.17;;;;;;;16.06;71.94;98019.73;1639438;86;21273;-87
2021/08/22 06:16:10;;;;;;;7.15;4.72;;;;;;;16.15;71.79;98022.40;1697103;83;21494;-87
2021/08/22 06:18:40;;;;;;;6.37;4.95;;;;;;;16.22;71.15;98019.81;1675104;85;21041;-87
2021/08/22 06:21:06;;;;;;;7.17;4.78;;;;;;;16.34;71.14;98026.78;1696060;85;21020;-86
2021/08/22 06:23:33;;;;;;;7.83;4.72;;;;;;;16.43;70.76;98020.08;1669410;85;21064;-87
2021/08/22 06:26:00;;;;;;;6.97;5.75;;;;;;;16.53;70.74;98020.47;1708807;82;20957;-87
2021/08/22 06:28:27;;;;;;;7.65;4.72;;;;;;;16.62;70.60;98026.66;1737747;82;21072;-86
2021/08/22 06:30:54;;;;;;;6.45;4.87;;;;;;;16.71;70.50;98020.81;1705807;82;21066;-87
2021/08/22 06:33:22;;;;;;;6.37;4.60;;;;;;;16.82;70.44;98015.34;1660216;84;20987;-86
2021/08/22 06:35:48;;;;;;;8.13;4.78;;;;;;;16.92;70.01;98020.58;1704300;82;21047;-87
2021/08/22 06:38:19;;;;;;;5.70;4.60;;;;;;;17.01;68.96;98012.04;1716874;82;21409;-84
2021/08/22 06:40:50;;;;;;;6.12;4.70;;;;;;;17.12;69.42;98017.30;1690588;82;21002;-84
2021/08/22 06:43:18;;;;;;;6.70;4.58;;;;;;;17.22;69.42;98016.28;1689909;82;21476;-87
2021/08/22 06:45:45;;;;;;;6.90;4.87;;;;;;;17.31;69.12;98012.25;1670614;82;20983;-87
2021/08/22 06:48:21;;;;;;;6.47;4.83;;;;;;;17.39;69.02;98006.83;1694984;82;21070;-86
2021/08/22 06:50:53;;;;;;;7.37;4.80;;;;;;;17.49;68.64;98011.20;1700498;82;21135;-86
2021/08/22 06:53:25;;;;;;;8.75;5.37;;;;;;;17.59;68.20;98011.51;1687711;84;21487;-86
2021/08/22 06:55:55;;;;;;;7.55;5.35;;;;;;;17.70;67.59;98015.38;1645748;84;21671;-86
2021/08/22 06:58:23;;;;;;;9.48;7.45;;;;;;;17.81;67.05;98011.58;1679277;84;21102;-87
2021/08/22 07:00:53;;;;;;;7.28;4.90;;;;;;;17.92;66.65;98013.63;1666766;85;21075;-86
2021/08/22 07:03:20;;;;;;;6.37;4.58;;;;;;;18.04;66.89;98014.25;1637567;84;20988;-86
2021/08/22 07:05:47;;;;;;;6.60;4.25;;;;;;;18.15;66.80;98016.30;1660616;82;20987;-86
2021/08/22 07:08:18;;;;;;;6.20;4.83;;;;;;;18.27;66.06;98016.53;1684589;82;21083;-86
2021/08/22 07:10:45;;;;;;;5.17;4.40;;;;;;;18.37;65.53;98015.00;1724162;82;21421;-86
2021/08/22 07:13:12;;;;;;;7.85;4.53;;;;;;;18.48;65.23;98017.03;1724096;82;21042;-85
2021/08/22 07:15:38;;;;;;;4.85;4.10;;;;;;;18.58;64.73;98014.16;1712934;82;21074;-85
2021/08/22 07:18:05;;;;;;;6.40;4.62;;;;;;;18.69;64.89;98012.63;1724798;82;21404;-86
2021/08/22 07:20:31;;;;;;;8.55;4.90;;;;;;;18.79;63.96;98015.58;1724078;82;21038;-86
2021/08/22 07:22:58;;;;;;;9.08;5.70;;;;;;;18.91;64.34;98017.97;1720478;82;21083;-87
2021/08/22 07:25:25;;;;;;;7.37;5.17;;;;;;;19.00;63.94;98020.06;1714471;82;21015;-85
2021/08/22 07:27:53;;;;;;;7.80;5.30;;;;;;;19.09;63.98;98022.67;1687773;83;21037;-88
2021/08/22 07:30:22;;;;;;;11.57;5.37;;;;;;;19.20;63.91;98022.86;1718191;83;20969;-87
2021/08/22 07:32:49;;;;;;;9.75;4.83;;;;;;;19.29;63.60;98022.73;1758047;82;21415;-87
2021/08/22 07:35:16;;;;;;;8.10;5.33;;;;;;;19.37;63.12;98016.86;1732319;83;21028;-89
2021/08/22 07:37:43;;;;;;;7.42;4.90;;;;;;;19.46;62.94;98024.78;1700295;82;21394;-88
2021/08/22 07:40:10;;;;;;;7.92;5.58;;;;;;;19.55;62.19;98021.50;1724866;83;20985;-88
2021/08/22 07:42:37;;;;;;;22.02;16.48;;;;;;;19.65;62.70;98019.91;1705958;81;21038;-86
2021/08/22 07:45:05;;;;;;;8.73;5.15;;;;;;;19.75;61.37;98010.77;1728877;82;20996;-85
2021/08/22 07:47:31;;;;;;;7.58;5.08;;;;;;;19.84;61.38;98017.84;1725188;83;21568;-86
2021/08/22 07:49:58;;;;;;;6.72;4.50;;;;;;;19.94;61.74;98016.25;1726078;82;20953;-90
2021/08/22 07:52:25;;;;;;;5.05;4.53;;;;;;;20.03;61.63;98010.75;1739972;82;20968;-88
2021/08/22 07:54:52;;;;;;;8.13;4.40;;;;;;;20.11;61.54;98008.88;1679806;84;21106;-90
2021/08/22 07:57:20;;;;;;;9.38;5.08;;;;;;;20.20;60.99;98014.97;1716141;83;21034;-89
2021/08/22 07:59:47;;;;;;;8.18;4.60;;;;;;;20.30;60.11;98012.02;1756995;82;21000;-85
2021/08/22 08:02:13;;;;;;;6.12;4.80;;;;;;;20.40;59.54;98010.03;1671346;83;21070;-84
2021/08/22 08:04:40;;;;;;;6.17;4.60;;;;;;;20.50;59.83;98005.72;1669840;82;20957;-90
2021/08/22 08:07:07;;;;;;;5.83;4.20;;;;;;;20.57;59.19;98008.38;1705192;83;20992;-92
2021/08/22 08:09:34;;;;;;;5.85;4.25;;;;;;;20.66;59.67;98005.51;1724243;83;21035;-94
2021/08/22 08:12:00;;;;;;;7.90;4.37;;;;;;;20.75;58.87;98005.33;1724213;83;21020;-94
2021/08/22 08:14:27;;;;;;;9.55;4.15;;;;;;;20.85;58.80;98010.94;1727107;82;21003;-93
2021/08/22 08:16:54;;;;;;;6.60;4.53;;;;;;;20.95;58.36;98013.84;1726602;83;20980;-94
2021/08/22 08:19:20;;;;;;;7.30;4.60;;;;;;;21.06;58.28;98010.38;1726635;83;21094;-94
2021/08/22 08:21:47;;;;;;;9.83;4.87;;;;;;;21.17;58.02;98008.25;1726726;83;21004;-93
2021/08/22 08:24:14;;;;;;;7.47;4.87;;;;;;;21.28;57.61;98011.02;1700513;83;20977;-94
2021/08/22 08:26:40;;;;;;;8.45;5.28;;;;;;;21.39;57.99;98009.36;1725313;81;20992;-94
2021/08/22 08:29:07;;;;;;;8.13;4.55;;;;;;;21.47;56.98;98006.96;1692051;85;21040;-93
2021/08/22 08:31:35;;;;;;;6.50;4.58;;;;;;;21.55;57.35;98010.43;1692130;84;21040;-92
2021/08/22 08:34:03;;;;;;;5.62;4.35;;;;;;;21.61;56.30;98004.56;1692045;85;21498;-93
2021/08/22 08:36:30;;;;;;;8.15;4.83;;;;;;;21.64;56.34;98000.30;1680044;83;20975;-92
2021/08/22 08:38:56;;;;;;;4.78;3.83;;;;;;;21.69;56.54;97996.77;1674296;86;21065;-92
2021/08/22 08:41:23;;;;;;;7.65;4.40;;;;;;;21.73;55.49;97992.91;1674157;86;21045;-91
2021/08/22 08:43:51;;;;;;;7.12;4.95;;;;;;;21.88;55.45;97994.06;1669263;86;22410;-92
2021/08/22 08:46:41;;;;;;;6.03;4.40;;;;;;;21.99;55.35;97996.78;1674263;86;21003;-94
2021/08/22 08:49:16;;;;;;;6.22;4.62;;;;;;;22.07;55.39;97989.92;1672476;84;21198;-93
2021/08/22 08:52:04;;;;;;;6.22;4.53;;;;;;;22.19;55.17;97997.56;1691226;85;21561;-92
2021/08/22 08:54:44;;;;;;;6.03;5.00;;;;;;;22.29;55.20;97990.46;1689971;84;22149;-93
2021/08/22 08:57:13;;;;;;;6.60;4.85;;;;;;;22.37;54.96;97996.61;1690135;85;21025;-93
2021/08/22 08:59:40;;;;;;;6.50;4.60;;;;;;;22.45;54.16;97996.03;1677819;84;20987;-95
2021/08/22 09:02:07;;;;;;;5.92;4.60;;;;;;;22.47;53.64;97993.58;1674197;86;21038;-94
2021/08/22 09:04:59;;;;;;;6.47;4.33;;;;;;;22.60;53.46;97996.20;1662489;86;20990;-94
2021/08/22 09:07:46;;;;;;;6.12;4.80;;;;;;;22.71;53.15;97991.27;1684448;84;21011;-94
2021/08/22 09:10:54;;;;;;;7.65;4.45;;;;;;;22.77;53.38;97989.92;1724837;83;21012;-94
2021/08/22 09:14:02;;;;;;;7.00;4.58;;;;;;;22.87;53.50;97988.71;1667713;85;21064;-91
2021/08/22 09:17:24;;;;;;;5.75;4.45;;;;;;;22.97;52.79;97988.33;1667676;86;20950;-92
2021/08/22 09:20:02;;;;;;;6.20;4.67;;;;;;;23.12;53.02;97982.66;1673261;83;20999;-91
2021/08/22 09:23:24;;;;;;;6.03;5.40;;;;;;;23.27;53.38;97980.05;1709780;84;21000;-93
2021/08/22 09:26:36;;;;;;;6.25;5.15;;;;;;;23.39;53.31;97974.14;1636750;88;21068;-91
2021/08/22 09:29:42;;;;;;;15.53;10.68;;;;;;;23.50;52.89;97971.03;1695392;84;21057;-93
2021/08/22 09:33:04;;;;;;;8.38;5.28;;;;;;;23.60;53.08;97962.03;1740894;82;21007;-93
2021/08/22 09:36:04;;;;;;;6.92;4.50;;;;;;;23.75;51.89;97970.32;1707499;84;21004;-92
2021/08/22 09:38:53;;;;;;;8.08;4.92;;;;;;;23.75;51.89;97970.32;1707405;84;21067;-91
2021/08/22 09:42:08;;;;;;;8.13;4.80;;;;;;;23.83;52.37;97963.77;1711127;83;20958;-94
2021/08/22 09:45:04;;;;;;;;;;;;;;;23.89;52.09;97963.24;1710271;83;21418;-93
2021/08/22 09:48:13;;;;;;;7.20;4.60;;;;;;;24.14;52.11;97961.16;1708825;84;20107;-92
2021/08/22 09:51:18;;;;;;;7.85;4.62;;;;;;;24.14;52.11;97961.16;1688123;84;20972;-92
2021/08/22 09:54:26;;;;;;;6.00;4.80;;;;;;;24.28;49.98;97960.47;1706952;83;20965;-90
2021/08/22 09:57:26;;;;;;;6.05;4.10;;;;;;;24.47;49.72;97956.99;1704589;84;20992;-90
2021/08/22 10:00:07;;;;;;;4.90;4.20;;;;;;;24.58;48.44;97953.34;1677826;85;21492;-89
2021/08/22 10:02:45;;;;;;;5.53;4.20;;;;;;;24.75;49.37;97951.84;1687815;83;21614;-91
2021/08/22 10:05:47;;;;;;;6.97;4.08;;;;;;;24.92;48.54;97955.79;1703124;83;21074;-86
2021/08/22 10:08:34;;;;;;;7.78;3.67;;;;;;;25.06;47.03;97946.40;1700717;83;21317;-89
2021/08/22 10:11:03;;;;;;;4.20;3.80;;;;;;;25.23;46.89;97946.22;1707360;83;21006;-80
2021/08/22 10:13:31;;;;;;;5.72;4.20;;;;;;;25.38;46.23;97942.61;1689752;83;20954;-82
2021/08/22 10:15:57;;;;;;;9.40;3.92;;;;;;;25.52;41.69;97939.97;1715178;82;21022;-83
2021/08/22 10:18:30;;;;;;;5.92;4.50;;;;;;;25.62;41.72;97940.51;1715305;83;20985;-82
2021/08/22 10:21:05;;;;;;;6.55;4.17;;;;;;;25.67;44.08;97936.86;1707698;83;21136;-83
2021/08/22 10:23:42;;;;;;;6.53;4.15;;;;;;;25.83;43.91;97939.00;1723919;83;21485;-82
2021/08/22 10:26:13;;;;;;;5.17;3.95;;;;;;;25.93;42.91;97933.55;1725043;82;20965;-83
2021/08/22 10:29:00;;;;;;;3.98;3.58;;;;;;;26.03;41.35;97929.47;1714517;82;21028;-82
2021/08/22 10:31:52;;;;;;;5.37;3.95;;;;;;;26.09;43.34;97929.75;1723664;82;21008;-83
2021/08/22 10:34:24;;;;;;;5.95;4.08;;;;;;;26.28;43.64;97925.80;1690326;84;21012;-83
2021/08/22 10:36:52;;;;;;;4.42;3.55;;;;;;;26.48;43.98;97928.80;1733145;82;21039;-82
2021/08/22 10:39:26;;;;;;;4.75;4.20;;;;;;;26.73;43.75;97920.09;1730017;82;21434;-83
2021/08/22 10:42:01;;;;;;;4.20;3.67;;;;;;;26.98;43.09;97917.22;1720096;83;21055;-83
2021/08/22 10:44:40;;;;;;;4.25;3.58;;;;;;;27.33;43.21;97913.84;1722932;82;21013;-83
2021/08/22 10:47:10;;;;;;;3.90;3.47;;;;;;;27.97;40.94;97911.02;1714022;83;21047;-84
2021/08/22 10:49:58;;;;;;;5.00;4.50;;;;;;;27.88;38.23;97912.83;1721662;83;21051;-84
2021/08/22 10:52:39;;;;;;;5.28;3.83;;;;;;;27.87;40.53;97906.17;1725200;82;20984;-84
2021/08/22 10:55:18;;;;;;;5.78;3.92;;;;;;;28.68;37.32;97914.17;1710339;82;21430;-83
2021/08/22 10:57:50;;;;;;;4.75;4.33;;;;;;;29.92;37.25;97910.89;1731984;82;21430;-82
2021/08/22 11:00:28;;;;;;;4.97;4.47;;;;;;;30.77;33.80;97905.95;1706209;84;21509;-82
2021/08/22 11:03:03;;;;;;;4.30;3.80;;;;;;;31.85;35.69;97894.86;1706093;84;21039;-82
2021/08/22 11:05:35;;;;;;;5.67;4.05;;;;;;;32.80;32.69;97897.16;1711277;82;21039;-83
2021/08/22 11:08:20;;;;;;;4.60;4.10;;;;;;;31.74;30.88;97893.41;1706203;83;21483;-82
2021/08/22 11:11:06;;;;;;;6.87;4.15;;;;;;;31.28;33.71;97891.48;1675456;84;21497;-82
2021/08/22 11:13:41;;;;;;;5.50;4.20;;;;;;;31.68;34.22;97896.34;1706276;84;21062;-80
2021/08/22 11:16:09;;;;;;;4.92;4.12;;;;;;;32.82;32.56;97897.80;1648727;85;21067;-81
2021/08/22 11:18:37;;;;;;;4.20;3.80;;;;;;;33.74;31.39;97899.28;1703608;84;21054;-80
2021/08/22 11:21:06;;;;;;;4.42;3.83;;;;;;;34.22;29.45;97896.75;1722120;82;21095;-88
2021/08/22 11:23:41;;;;;;;6.05;3.77;;;;;;;34.23;29.54;97896.20;1724117;82;21016;-89
2021/08/22 11:26:11;;;;;;;6.25;3.90;;;;;;;34.71;28.42;97895.45;1724632;83;20977;-89
2021/08/22 11:28:46;;;;;;;6.72;3.98;;;;;;;34.20;27.02;97898.83;1672846;83;21028;-91
2021/08/22 11:31:14;;;;;;;5.65;3.75;;;;;;;34.29;24.12;97896.77;1691643;83;21470;-87
2021/08/22 11:33:41;;;;;;;3.70;3.40;;;;;;;34.54;23.66;97896.82;1694972;83;21063;-83
2021/08/22 11:36:08;;;;;;;4.42;3.62;;;;;;;35.02;25.47;97897.38;1720009;82;21032;-86
2021/08/22 11:38:38;;;;;;;5.20;3.65;;;;;;;35.35;22.92;97895.30;1660691;85;21060;-85
2021/08/22 11:41:07;;;;;;;6.12;3.87;;;;;;;35.51;21.98;97898.19;1686229;85;21017;-85
2021/08/22 11:43:34;;;;;;;4.28;3.87;;;;;;;36.03;23.97;97892.63;1716975;83;20956;-88
2021/08/22 11:46:01;;;;;;;5.35;4.20;;;;;;;36.38;23.10;97884.64;1653380;84;21044;-86
2021/08/22 11:48:30;;;;;;;3.85;3.52;;;;;;;36.76;23.17;97890.83;1697466;83;21088;-88
2021/08/22 11:51:02;;;;;;;6.65;5.87;;;;;;;37.35;23.53;97887.16;1647482;85;21052;-87
2021/08/22 11:53:30;;;;;;;11.03;9.93;;;;;;;37.84;23.00;97879.72;1694181;85;21041;-86
2021/08/22 11:55:57;;;;;;;7.87;6.45;;;;;;;38.02;21.87;97886.69;1670360;85;21016;-87